Time;durP1;ratioP1;P1;durP2;ratioP2;P2;SDS_P1;SDS_P2;PMS_P1;PMS_P2;Temp;Humidity;BMP_temperature;BMP_pressure;BME280_temperature;BME280_humidity;BME280_pressure;Samples;Min_cycle;Max_cycle;Signal;HPM_P1;HPM_P2
2024/04/20 00:01:44;;;;;;;12.45;2.47;;;7.30;99.90;;;;;;5332744;26;20245;-68
2024/04/20 00:04:10;;;;;;;11.32;2.33;;;7.30;99.90;;;;;;5353735;26;20701;-68
2024/04/20 00:06:35;;;;;;;10.07;2.70;;;7.30;99.90;;;;;;5358406;26;20234;-68
2024/04/20 00:09:01;;;;;;;5.20;2.33;;;7.20;99.90;;;;;;5346416;26;20265;-68
2024/04/20 00:11:27;;;;;;;7.57;2.30;;;7.20;99.90;;;;;;5355477;26;20280;-69
2024/04/20 00:13:54;;;;;;;11.68;2.45;;;7.20;99.90;;;;;;5350763;26;20234;-68
2024/04/20 00:16:20;;;;;;;13.77;2.40;;;7.20;99.90;;;;;;5350918;26;20238;-68
2024/04/20 00:18:46;;;;;;;5.75;1.83;;;7.10;99.90;;;;;;5391941;26;20281;-69
2024/04/20 00:21:11;;;;;;;5.35;2.10;;;7.10;99.90;;;;;;5348358;26;20285;-69
2024/04/20 00:23:37;;;;;;;5.68;2.10;;;7.10;99.90;;;;;;5352261;26;20276;-68
2024/04/20 00:26:06;;;;;;;8.73;2.33;;;7.10;99.90;;;;;;5348770;26;20239;-68
2024/04/20 00:28:32;;;;;;;8.85;2.15;;;7.10;99.90;;;;;;5351573;26;20814;-69
2024/04/20 00:30:59;;;;;;;6.40;1.90;;;7.00;99.90;;;;;;5354591;26;20272;-67
2024/04/20 00:33:25;;;;;;;7.60;1.95;;;7.00;99.90;;;;;;5355181;26;20230;-67
2024/04/20 00:35:51;;;;;;;11.07;2.30;;;7.00;99.90;;;;;;5345782;26;20266;-68
2024/04/20 00:38:16;;;;;;;8.75;2.05;;;7.00;99.90;;;;;;5353554;26;20234;-68
2024/04/20 00:40:42;;;;;;;7.88;2.30;;;6.90;99.90;;;;;;5349358;26;20794;-67
2024/04/20 00:43:17;;;;;;;10.80;2.42;;;6.90;99.90;;;;;;5354424;26;20254;-67
2024/04/20 00:45:44;;;;;;;9.52;2.38;;;6.90;99.90;;;;;;5350854;26;20268;-68
2024/04/20 00:48:11;;;;;;;12.85;2.45;;;6.90;99.90;;;;;;5349490;26;20235;-68
2024/04/20 00:50:39;;;;;;;9.30;2.30;;;6.90;99.90;;;;;;5351426;26;20238;-68
2024/04/20 00:53:07;;;;;;;7.97;2.15;;;6.90;99.90;;;;;;5349064;26;20301;-68
2024/04/20 00:55:34;;;;;;;13.48;2.55;;;6.90;99.90;;;;;;5347405;26;20269;-67
2024/04/20 00:58:04;;;;;;;8.15;2.38;;;7.00;99.90;;;;;;5344188;26;20338;-67
2024/04/20 01:00:31;;;;;;;8.75;2.20;;;6.90;99.90;;;;;;5351022;26;20280;-68
2024/04/20 01:02:58;;;;;;;18.25;2.53;;;7.00;99.90;;;;;;5346153;26;20242;-68
2024/04/20 01:05:24;;;;;;;12.50;2.00;;;7.00;99.90;;;;;;5349674;26;20230;-68
2024/04/20 01:07:50;;;;;;;13.35;2.35;;;7.00;99.90;;;;;;5351312;26;20966;-68
2024/04/20 01:10:16;;;;;;;8.80;2.33;;;7.00;99.90;;;;;;5406357;26;20835;-68
2024/04/20 01:12:41;;;;;;;12.15;2.45;;;7.00;99.90;;;;;;5355707;26;20237;-67
2024/04/20 01:15:07;;;;;;;7.57;2.63;;;7.00;99.90;;;;;;5349394;26;20277;-68
2024/04/20 01:17:33;;;;;;;7.75;2.13;;;7.10;99.90;;;;;;5349253;26;20257;-68
2024/04/20 01:19:58;;;;;;;7.40;1.90;;;7.10;99.90;;;;;;5345886;26;20597;-67
2024/04/20 01:22:24;;;;;;;11.77;2.30;;;7.10;99.90;;;;;;5352680;26;20340;-67
2024/04/20 01:24:54;;;;;;;11.10;2.30;;;7.10;99.90;;;;;;5346747;26;20291;-67
2024/04/20 01:27:20;;;;;;;9.85;2.40;;;7.10;99.90;;;;;;5351004;26;20230;-67
2024/04/20 01:29:46;;;;;;;9.35;1.98;;;7.10;99.90;;;;;;5347419;26;20276;-67
2024/04/20 01:32:11;;;;;;;8.00;2.17;;;7.10;99.90;;;;;;5344150;26;20343;-68
2024/04/20 01:34:37;;;;;;;11.30;2.70;;;7.00;99.90;;;;;;5320738;26;20238;-68
2024/04/20 01:37:03;;;;;;;8.60;2.60;;;7.00;99.90;;;;;;5356895;26;20296;-67
2024/04/20 01:39:29;;;;;;;10.32;2.40;;;7.00;99.90;;;;;;5412701;26;20235;-68
2024/04/20 01:41:54;;;;;;;7.20;1.88;;;6.90;99.90;;;;;;5348696;26;20339;-68
2024/04/20 01:44:20;;;;;;;10.13;2.50;;;6.90;99.90;;;;;;5351253;26;20234;-68
2024/04/20 01:46:46;;;;;;;13.50;2.53;;;6.90;99.90;;;;;;5345691;26;20746;-68
2024/04/20 01:49:11;;;;;;;12.55;2.47;;;6.90;99.90;;;;;;5346404;26;20238;-67
2024/04/20 01:51:37;;;;;;;10.15;2.20;;;6.80;99.90;;;;;;5354015;26;20241;-69
2024/04/20 01:54:04;;;;;;;12.20;2.40;;;6.80;99.90;;;;;;5350459;26;20234;-68
2024/04/20 01:56:29;;;;;;;7.97;2.10;;;6.80;99.90;;;;;;5345331;26;20226;-68
2024/04/20 01:58:55;;;;;;;7.10;2.08;;;6.80;99.90;;;;;;5350517;26;20305;-69
2024/04/20 02:01:21;;;;;;;8.15;2.42;;;6.80;99.90;;;;;;5350608;26;20226;-69
2024/04/20 02:03:47;;;;;;;9.75;2.20;;;6.80;99.90;;;;;;5351124;26;20794;-68
2024/04/20 02:06:12;;;;;;;10.45;2.33;;;6.80;99.90;;;;;;5347662;26;20226;-67
2024/04/20 02:08:39;;;;;;;7.82;1.90;;;6.80;99.90;;;;;;5356212;26;20795;-67
2024/04/20 02:11:05;;;;;;;7.05;1.77;;;6.80;99.90;;;;;;5347529;26;20227;-68
2024/04/20 02:13:30;;;;;;;6.72;2.00;;;6.80;99.90;;;;;;5351434;26;20331;-67
2024/04/20 02:15:56;;;;;;;8.40;2.03;;;6.80;99.90;;;;;;5346500;26;20269;-68
2024/04/20 02:18:22;;;;;;;9.10;2.00;;;6.70;99.90;;;;;;5345750;26;20712;-68
2024/04/20 02:20:47;;;;;;;5.90;1.80;;;6.70;99.90;;;;;;5345124;26;20292;-69
2024/04/20 02:23:14;;;;;;;8.07;2.05;;;6.80;99.90;;;;;;5348203;26;20235;-68
2024/04/20 02:25:39;;;;;;;7.55;2.10;;;6.70;99.90;;;;;;5348877;26;20264;-69
2024/04/20 02:28:05;;;;;;;6.22;2.00;;;6.70;99.90;;;;;;5357139;26;20241;-68
2024/04/20 02:30:31;;;;;;;7.07;2.13;;;6.70;99.90;;;;;;5345643;26;20273;-68
2024/04/20 02:32:57;;;;;;;7.90;2.20;;;6.70;99.90;;;;;;5344450;26;20310;-67
2024/04/20 02:35:22;;;;;;;10.05;2.00;;;6.80;99.90;;;;;;5347682;26;20317;-70
2024/04/20 02:37:48;;;;;;;6.18;2.10;;;6.80;99.90;;;;;;5351870;26;20273;-67
2024/04/20 02:40:14;;;;;;;8.63;2.15;;;6.90;99.90;;;;;;5353289;26;20268;-67
2024/04/20 02:42:40;;;;;;;10.68;2.45;;;6.90;99.90;;;;;;5357574;26;20287;-68
2024/04/20 02:45:12;;;;;;;7.45;1.70;;;7.00;99.90;;;;;;5352353;26;20254;-68
2024/04/20 02:47:38;;;;;;;6.85;1.80;;;7.00;99.90;;;;;;5347849;26;20272;-69
2024/04/20 02:50:05;;;;;;;6.47;1.95;;;7.10;99.90;;;;;;5348538;26;20238;-69
2024/04/20 02:52:30;;;;;;;9.90;1.70;;;7.10;99.90;;;;;;5349943;26;21393;-68
2024/04/20 02:54:56;;;;;;;10.30;2.03;;;7.10;99.90;;;;;;5353118;26;20269;-67
2024/04/20 02:57:22;;;;;;;2.03;1.13;;;7.20;99.90;;;;;;5352659;26;20339;-69
2024/04/20 02:59:48;;;;;;;3.42;1.35;;;7.20;99.90;;;;;;5350380;26;20331;-68
2024/04/20 03:02:14;;;;;;;5.07;1.40;;;7.20;99.90;;;;;;5354576;26;20711;-68
2024/04/20 03:04:40;;;;;;;3.65;1.30;;;7.20;99.90;;;;;;5352153;26;20268;-67
2024/04/20 03:07:06;;;;;;;2.50;1.33;;;7.20;99.90;;;;;;5344728;26;20348;-68
2024/04/20 03:09:32;;;;;;;5.85;1.73;;;7.20;99.90;;;;;;5351592;26;20235;-68
2024/04/20 03:11:57;;;;;;;2.30;1.13;;;7.20;99.90;;;;;;5356649;26;20337;-69
2024/04/20 03:14:23;;;;;;;4.95;1.45;;;7.10;99.90;;;;;;5359424;26;20560;-67
2024/04/20 03:16:49;;;;;;;4.32;1.38;;;7.10;99.90;;;;;;5356345;26;20234;-69
2024/04/20 03:19:14;;;;;;;6.20;1.33;;;7.10;99.90;;;;;;5353497;26;20294;-68
2024/04/20 03:21:40;;;;;;;5.53;1.58;;;7.10;99.90;;;;;;5348843;26;20344;-68
2024/04/20 03:24:06;;;;;;;6.60;1.52;;;7.10;99.90;;;;;;5353120;26;20353;-69
2024/04/20 03:26:31;;;;;;;7.35;1.77;;;7.10;99.90;;;;;;5353040;26;20578;-68
2024/04/20 03:28:57;;;;;;;6.00;1.65;;;7.10;99.90;;;;;;5358164;26;20288;-69
2024/04/20 03:31:23;;;;;;;10.38;1.80;;;7.20;99.90;;;;;;5347931;26;20314;-68
2024/04/20 03:33:48;;;;;;;7.75;1.65;;;7.20;99.90;;;;;;5348411;26;20657;-68
2024/04/20 03:36:14;;;;;;;9.13;1.80;;;7.20;99.90;;;;;;5322776;26;20652;-67
2024/04/20 03:38:45;;;;;;;7.93;1.83;;;7.20;99.90;;;;;;5357100;26;20268;-68
2024/04/20 03:41:11;;;;;;;8.25;1.88;;;7.30;99.90;;;;;;5355412;26;20237;-69
2024/04/20 03:43:37;;;;;;;3.28;1.33;;;7.30;99.90;;;;;;5353726;26;20848;-68
2024/04/20 03:46:03;;;;;;;11.02;2.00;;;7.30;99.90;;;;;;5406860;26;20750;-68
2024/04/20 03:48:29;;;;;;;11.18;1.42;;;7.30;99.90;;;;;;5353093;26;20281;-69
2024/04/20 03:50:56;;;;;;;3.97;1.42;;;7.20;99.90;;;;;;5354478;26;20237;-69
2024/04/20 03:53:25;;;;;;;9.85;1.52;;;7.00;99.90;;;;;;5352293;26;20227;-68
2024/04/20 03:55:52;;;;;;;10.27;1.58;;;6.80;99.90;;;;;;5354461;26;20230;-68
2024/04/20 03:58:18;;;;;;;10.23;1.65;;;6.60;99.90;;;;;;5351270;26;20243;-69
2024/04/20 04:00:46;;;;;;;7.15;1.50;;;6.50;99.90;;;;;;5410475;26;20243;-69
2024/04/20 04:03:26;;;;;;;7.32;1.30;;;6.40;99.90;;;;;;5351474;26;20281;-69
2024/04/20 04:05:52;;;;;;;6.00;1.30;;;6.30;99.90;;;;;;5344023;26;20300;-70
2024/04/20 04:08:18;;;;;;;8.65;1.77;;;6.20;99.90;;;;;;5362191;26;20225;-70
2024/04/20 04:10:47;;;;;;;4.95;1.50;;;6.10;99.90;;;;;;5347772;26;20339;-69
2024/04/20 04:13:14;;;;;;;3.72;1.45;;;6.10;99.90;;;;;;5386454;26;20233;-68
2024/04/20 04:15:40;;;;;;;6.25;1.50;;;6.00;99.90;;;;;;5349886;26;20234;-69
2024/04/20 04:18:07;;;;;;;7.57;1.60;;;6.00;99.90;;;;;;5352784;26;20246;-68
2024/04/20 04:20:34;;;;;;;9.13;2.13;;;6.00;99.90;;;;;;5350577;26;20230;-68
2024/04/20 04:23:03;;;;;;;13.75;1.77;;;6.00;99.90;;;;;;5355688;26;20289;-68
2024/04/20 04:25:30;;;;;;;13.75;1.63;;;6.00;99.90;;;;;;5353353;26;20231;-69
2024/04/20 04:27:57;;;;;;;10.82;1.63;;;6.00;99.90;;;;;;5348275;26;20283;-68
2024/04/20 04:30:23;;;;;;;5.82;1.48;;;6.00;99.90;;;;;;5352699;26;20276;-68
2024/04/20 04:32:48;;;;;;;12.80;1.63;;;5.90;99.90;;;;;;5354387;26;20245;-67
2024/04/20 04:35:14;;;;;;;5.63;1.38;;;6.00;99.90;;;;;;5353714;26;20233;-68
2024/04/20 04:37:40;;;;;;;12.60;2.00;;;5.90;99.90;;;;;;5412694;26;20361;-67
2024/04/20 04:40:06;;;;;;;10.95;2.13;;;5.90;99.90;;;;;;5352431;26;20277;-68
2024/04/20 04:42:32;;;;;;;6.95;1.63;;;5.90;99.90;;;;;;5354465;26;20646;-69
2024/04/20 04:45:02;;;;;;;7.15;1.73;;;6.00;99.90;;;;;;5351913;26;20231;-69
2024/04/20 04:47:27;;;;;;;8.15;1.95;;;6.00;99.90;;;;;;5351450;26;20285;-68
2024/04/20 04:49:53;;;;;;;5.68;1.80;;;6.00;99.90;;;;;;5355294;26;20238;-67
2024/04/20 04:52:19;;;;;;;4.97;1.60;;;6.00;99.90;;;;;;5349110;26;20242;-68
2024/04/20 04:54:45;;;;;;;7.55;1.67;;;5.90;99.90;;;;;;5354420;26;20296;-70
2024/04/20 04:57:11;;;;;;;9.77;1.42;;;5.90;99.90;;;;;;5352308;26;21698;-66
2024/04/20 04:59:36;;;;;;;6.40;1.52;;;5.90;99.90;;;;;;5350067;26;20238;-67
2024/04/20 05:02:02;;;;;;;9.02;1.50;;;5.90;99.90;;;;;;5346261;26;20341;-67
2024/04/20 05:04:29;;;;;;;4.80;1.30;;;5.90;99.90;;;;;;5351855;26;20268;-68
2024/04/20 05:06:55;;;;;;;10.43;1.38;;;5.90;99.90;;;;;;5341310;26;20310;-72
2024/04/20 05:09:20;;;;;;;5.50;1.30;;;5.80;99.90;;;;;;5350131;26;20282;-68
2024/04/20 05:11:47;;;;;;;5.07;1.23;;;5.80;99.90;;;;;;5356765;26;20344;-67
2024/04/20 05:14:13;;;;;;;4.47;1.00;;;5.80;99.90;;;;;;5351443;26;20743;-68
2024/04/20 05:16:41;;;;;;;4.82;1.00;;;5.80;99.90;;;;;;5352565;26;20234;-67
2024/04/20 05:19:07;;;;;;;8.18;1.13;;;5.80;99.90;;;;;;5351466;26;20338;-68
2024/04/20 05:21:33;;;;;;;10.80;1.27;;;5.80;99.90;;;;;;5349980;26;20234;-66
2024/04/20 05:24:00;;;;;;;6.40;1.10;;;5.90;99.90;;;;;;5351566;26;20280;-67
2024/04/20 05:26:28;;;;;;;4.40;0.95;;;5.90;99.90;;;;;;5351348;26;20229;-67
2024/04/20 05:28:54;;;;;;;7.13;1.23;;;5.90;99.90;;;;;;5346662;26;20230;-66
2024/04/20 05:31:20;;;;;;;5.70;1.15;;;6.00;99.90;;;;;;5350877;26;20243;-67
2024/04/20 05:33:46;;;;;;;9.35;1.30;;;6.00;99.90;;;;;;5359275;26;20268;-67
2024/04/20 05:36:12;;;;;;;6.28;1.50;;;6.10;99.90;;;;;;5354781;26;20458;-67
2024/04/20 05:38:38;;;;;;;3.88;1.33;;;6.10;99.90;;;;;;5350802;26;20285;-67
2024/04/20 05:41:04;;;;;;;6.53;1.42;;;6.10;99.90;;;;;;5355835;26;20233;-66
2024/04/20 05:43:31;;;;;;;8.95;1.58;;;6.20;99.90;;;;;;5350000;26;20238;-67
2024/04/20 05:45:57;;;;;;;9.27;1.60;;;6.20;99.90;;;;;;5357607;26;20767;-68
2024/04/20 05:48:23;;;;;;;9.43;1.88;;;6.20;99.90;;;;;;5351873;26;20648;-66
2024/04/20 05:50:48;;;;;;;10.15;1.50;;;6.20;99.90;;;;;;5350093;26;20231;-67
2024/04/20 05:53:14;;;;;;;9.00;1.83;;;6.20;99.90;;;;;;5359209;26;21218;-67
2024/04/20 05:55:43;;;;;;;7.45;1.30;;;6.30;99.90;;;;;;5358374;26;20250;-66
2024/04/20 05:58:09;;;;;;;13.15;1.73;;;6.30;99.90;;;;;;5348727;26;20243;-68
2024/04/20 06:00:35;;;;;;;6.85;1.45;;;6.40;99.90;;;;;;5349313;26;20237;-66
2024/04/20 06:03:01;;;;;;;3.25;1.00;;;6.40;99.90;;;;;;5345678;26;20373;-67
2024/04/20 06:05:27;;;;;;;8.38;1.60;;;6.50;99.90;;;;;;5350677;26;20266;-68
2024/04/20 06:07:53;;;;;;;9.85;1.73;;;6.50;99.90;;;;;;5356329;26;20945;-66
2024/04/20 06:10:18;;;;;;;10.73;1.40;;;6.50;99.90;;;;;;5349130;26;20742;-68
2024/04/20 06:12:44;;;;;;;9.02;1.65;;;6.50;99.90;;;;;;5349508;26;20233;-66
2024/04/20 06:15:10;;;;;;;15.18;1.58;;;6.60;99.90;;;;;;5349727;26;20230;-67
2024/04/20 06:17:36;;;;;;;7.90;1.60;;;6.60;99.90;;;;;;5353760;26;20237;-67
2024/04/20 06:20:02;;;;;;;7.35;1.08;;;6.60;99.90;;;;;;5352565;26;20362;-67
2024/04/20 06:22:28;;;;;;;9.38;1.40;;;6.50;99.90;;;;;;5350439;26;20659;-68
2024/04/20 06:24:54;;;;;;;8.55;1.45;;;6.40;99.90;;;;;;5355112;26;20234;-68
2024/04/20 06:27:22;;;;;;;8.15;1.70;;;6.30;99.90;;;;;;5354284;26;20319;-65
2024/04/20 06:29:49;;;;;;;8.57;1.95;;;6.20;99.90;;;;;;5409154;26;20369;-66
2024/04/20 06:32:15;;;;;;;10.68;1.70;;;6.10;99.90;;;;;;5349601;26;20844;-66
2024/04/20 06:34:41;;;;;;;6.22;1.50;;;6.00;99.90;;;;;;5352764;26;20621;-67
2024/04/20 06:37:09;;;;;;;9.23;1.95;;;6.00;99.90;;;;;;5346514;26;20305;-69
2024/04/20 06:39:35;;;;;;;4.97;1.30;;;6.10;99.90;;;;;;5349649;26;20275;-67
2024/04/20 06:42:01;;;;;;;10.45;1.80;;;6.20;99.90;;;;;;5346846;26;20250;-67
2024/04/20 06:44:26;;;;;;;9.25;1.73;;;6.30;99.90;;;;;;5343807;26;20360;-67
2024/04/20 06:46:53;;;;;;;14.05;1.80;;;6.30;99.90;;;;;;5350508;26;20575;-68
2024/04/20 06:49:18;;;;;;;13.10;2.03;;;6.40;99.90;;;;;;5352715;26;20300;-69
2024/04/20 06:51:44;;;;;;;13.30;2.00;;;6.40;99.90;;;;;;5343938;26;20574;-67
2024/04/20 06:54:10;;;;;;;12.05;1.83;;;6.50;99.90;;;;;;5343567;26;20361;-68
2024/04/20 06:56:35;;;;;;;10.27;1.58;;;6.40;99.90;;;;;;5350171;26;20767;-67
2024/04/20 06:59:01;;;;;;;14.75;2.38;;;6.50;99.90;;;;;;5407379;26;20293;-67
2024/04/20 07:01:27;;;;;;;15.60;2.20;;;6.50;99.90;;;;;;5343401;26;20273;-65
2024/04/20 07:03:53;;;;;;;12.35;2.00;;;6.50;99.90;;;;;;5347918;26;20242;-67
2024/04/20 07:06:18;;;;;;;12.93;1.88;;;6.50;99.90;;;;;;5349470;26;20281;-66
2024/04/20 07:08:44;;;;;;;15.00;1.92;;;6.50;99.90;;;;;;5347057;26;20230;-67
2024/04/20 07:11:10;;;;;;;15.35;2.55;;;6.40;99.90;;;;;;5349661;26;20277;-65
2024/04/20 07:13:37;;;;;;;15.25;2.53;;;6.40;99.90;;;;;;5352611;26;20235;-67
2024/04/20 07:16:04;;;;;;;13.80;1.88;;;6.40;99.90;;;;;;5358096;26;20330;-67
2024/04/20 07:18:30;;;;;;;18.25;2.45;;;6.40;99.90;;;;;;5344116;26;20238;-66
2024/04/20 07:20:57;;;;;;;15.57;2.63;;;6.40;99.90;;;;;;5350409;26;20319;-68
2024/04/20 07:23:22;;;;;;;15.48;2.15;;;6.50;99.90;;;;;;5353937;26;20235;-66
2024/04/20 07:26:17;;;;;;;13.88;2.05;;;6.50;99.90;;;;;;5358016;26;20256;-67
2024/04/20 07:28:43;;;;;;;11.25;2.67;;;6.50;99.90;;;;;;5343650;26;20412;-67
2024/04/20 07:31:09;;;;;;;8.57;2.03;;;6.60;99.90;;;;;;5349318;26;20612;-66
2024/04/20 07:33:34;;;;;;;10.60;2.13;;;6.70;99.90;;;;;;5360742;26;20288;-67
2024/04/20 07:36:00;;;;;;;15.75;2.67;;;6.80;99.90;;;;;;5357682;26;20241;-68
2024/04/20 07:38:26;;;;;;;11.82;1.55;;;6.90;99.90;;;;;;5353387;26;20267;-67
2024/04/20 07:40:52;;;;;;;12.32;1.90;;;7.00;99.90;;;;;;5352217;26;20234;-65
2024/04/20 07:43:17;;;;;;;9.43;1.70;;;7.00;99.90;;;;;;5356449;26;20234;-67
2024/04/20 07:45:43;;;;;;;12.70;1.92;;;7.10;99.90;;;;;;5352557;26;20250;-67
2024/04/20 07:48:09;;;;;;;12.05;2.03;;;7.20;99.90;;;;;;5355474;26;20333;-66
2024/04/20 07:50:34;;;;;;;10.18;1.80;;;7.20;99.90;;;;;;5387115;26;20235;-66
2024/04/20 07:53:00;;;;;;;7.90;1.77;;;7.30;99.90;;;;;;5353971;26;20291;-66
2024/04/20 07:55:26;;;;;;;11.85;1.83;;;7.30;99.90;;;;;;5353222;26;20285;-66
2024/04/20 07:57:52;;;;;;;8.20;1.77;;;7.40;99.90;;;;;;5356250;26;20233;-68
2024/04/20 08:00:18;;;;;;;11.63;1.88;;;7.40;99.90;;;;;;5337715;26;20234;-66
2024/04/20 08:02:44;;;;;;;11.70;2.28;;;7.50;99.90;;;;;;5351939;26;20229;-67
2024/04/20 08:05:10;;;;;;;13.93;1.73;;;7.60;99.90;;;;;;5356934;26;20265;-67
2024/04/20 08:07:36;;;;;;;6.72;1.60;;;7.70;99.90;;;;;;5355615;26;20248;-67
2024/04/20 08:10:01;;;;;;;11.25;1.67;;;7.80;99.90;;;;;;5356772;26;20249;-68
2024/04/20 08:12:27;;;;;;;14.25;2.15;;;7.80;99.90;;;;;;5351740;26;20238;-65
2024/04/20 08:14:53;;;;;;;12.75;2.15;;;7.80;99.90;;;;;;5351434;26;20231;-65
2024/04/20 08:17:19;;;;;;;8.00;1.92;;;7.90;99.90;;;;;;5351983;26;20289;-65
2024/04/20 08:19:46;;;;;;;8.23;1.73;;;7.90;99.90;;;;;;5354772;26;20244;-66
2024/04/20 08:22:11;;;;;;;8.15;1.60;;;7.90;99.90;;;;;;5351081;26;20300;-66
2024/04/20 08:24:37;;;;;;;8.82;1.90;;;7.90;99.90;;;;;;5353719;26;20663;-67
2024/04/20 08:27:03;;;;;;;10.02;2.03;;;7.90;99.90;;;;;;5354025;26;20338;-67
2024/04/20 08:29:29;;;;;;;13.70;1.73;;;8.00;99.90;;;;;;5355441;26;20238;-65
2024/04/20 08:31:54;;;;;;;10.15;2.20;;;8.10;99.90;;;;;;5347298;26;20280;-67
2024/04/20 08:34:20;;;;;;;5.57;1.25;;;8.20;99.90;;;;;;5349588;26;20311;-67
2024/04/20 08:36:46;;;;;;;12.07;1.52;;;8.30;99.90;;;;;;5352063;26;21302;-68
2024/04/20 08:39:12;;;;;;;6.05;1.20;;;8.50;99.90;;;;;;5347214;26;20743;-68
2024/04/20 08:42:21;;;;;;;5.35;1.10;;;8.70;99.90;;;;;;5354416;26;20282;-67
2024/04/20 08:44:49;;;;;;;6.45;1.05;;;8.90;99.90;;;;;;5316686;26;20286;-66
2024/04/20 08:47:15;;;;;;;4.55;0.90;;;9.10;99.90;;;;;;5347454;26;20294;-68
2024/04/20 08:49:43;;;;;;;4.65;0.95;;;9.20;99.90;;;;;;5353949;26;20242;-66
2024/04/20 08:52:10;;;;;;;6.88;0.77;;;9.20;99.90;;;;;;5350080;26;20649;-67
2024/04/20 08:54:36;;;;;;;5.00;0.93;;;9.30;99.90;;;;;;5354864;26;20301;-69
2024/04/20 08:57:03;;;;;;;3.33;0.82;;;9.30;99.90;;;;;;5342787;26;20321;-66
2024/04/20 08:59:29;;;;;;;4.80;1.45;;;9.40;99.90;;;;;;5355777;26;20241;-65
2024/04/20 09:01:56;;;;;;;5.75;1.27;;;9.50;99.90;;;;;;5352946;26;20272;-67
2024/04/20 09:04:22;;;;;;;4.68;1.15;;;9.50;99.90;;;;;;5353022;26;20231;-69
2024/04/20 09:06:48;;;;;;;4.07;1.20;;;9.50;99.90;;;;;;5351302;26;20751;-66
2024/04/20 09:09:16;;;;;;;8.38;1.20;;;9.50;99.90;;;;;;5349563;26;20230;-68
2024/04/20 09:11:42;;;;;;;3.78;1.10;;;9.60;99.90;;;;;;5355809;26;20265;-67
2024/04/20 09:14:08;;;;;;;4.30;1.23;;;9.50;99.90;;;;;;5348242;26;20317;-73
2024/04/20 09:16:34;;;;;;;5.30;1.20;;;9.70;99.90;;;;;;5404594;26;20281;-67
2024/04/20 09:19:03;;;;;;;2.53;1.05;;;9.80;99.90;;;;;;5349394;26;21091;-66
2024/04/20 09:21:29;;;;;;;6.95;1.40;;;9.90;99.90;;;;;;5352181;26;20288;-66
2024/04/20 09:24:06;;;;;;;4.18;0.90;;;9.90;99.90;;;;;;5355842;26;20242;-67
2024/04/20 09:26:32;;;;;;;4.13;0.98;;;10.00;99.90;;;;;;5348329;26;20237;-67
2024/04/20 09:28:58;;;;;;;4.70;1.10;;;10.10;99.90;;;;;;5349366;26;21245;-67
2024/04/20 09:31:26;;;;;;;6.18;1.00;;;10.30;99.90;;;;;;5347017;26;20340;-68
2024/04/20 09:33:52;;;;;;;5.28;1.05;;;10.40;99.90;;;;;;5356023;26;20333;-66
2024/04/20 09:36:19;;;;;;;7.03;1.40;;;10.50;99.90;;;;;;5349800;26;20285;-67
2024/04/20 09:38:45;;;;;;;5.90;1.00;;;10.60;99.90;;;;;;5349627;26;20231;-66
2024/04/20 09:41:14;;;;;;;5.53;1.00;;;10.70;99.90;;;;;;5348540;26;20288;-69
2024/04/20 09:43:45;;;;;;;6.80;1.30;;;10.60;99.90;;;;;;5352820;26;20771;-69
2024/04/20 09:46:11;;;;;;;4.00;1.00;;;10.60;99.90;;;;;;5346978;26;20710;-67
2024/04/20 09:48:38;;;;;;;3.08;1.20;;;10.70;99.90;;;;;;5347909;26;20353;-66
2024/04/20 09:51:21;;;;;;;3.97;1.25;;;10.80;99.90;;;;;;5353099;26;20226;-66
2024/04/20 09:53:55;;;;;;;7.93;1.30;;;10.90;99.90;;;;;;5406645;26;20274;-67
2024/04/20 09:56:22;;;;;;;5.78;1.30;;;10.90;99.90;;;;;;5350098;26;20305;-68
2024/04/20 09:58:50;;;;;;;4.68;1.02;;;10.90;99.90;;;;;;5356727;26;20242;-66
2024/04/20 10:01:17;;;;;;;4.85;1.50;;;10.80;99.90;;;;;;5352862;26;20305;-66
2024/04/20 10:03:43;;;;;;;4.55;1.02;;;10.70;99.90;;;;;;5380335;26;20285;-67
2024/04/20 10:06:11;;;;;;;5.85;1.00;;;10.70;99.90;;;;;;5379641;26;20225;-68
2024/04/20 10:08:40;;;;;;;4.53;1.20;;;10.70;99.90;;;;;;5348995;26;20265;-68
2024/04/20 10:11:06;;;;;;;4.40;1.15;;;10.70;99.90;;;;;;5350187;26;20300;-66
2024/04/20 10:13:34;;;;;;;3.35;0.80;;;10.60;99.90;;;;;;5353872;26;20331;-65
2024/04/20 10:16:00;;;;;;;3.42;0.98;;;10.40;99.90;;;;;;5352478;26;20376;-66
2024/04/20 10:18:26;;;;;;;2.70;0.90;;;10.20;99.90;;;;;;5354179;26;20264;-67
2024/04/20 10:20:59;;;;;;;4.15;1.00;;;10.00;99.90;;;;;;5349358;26;20233;-67
2024/04/20 10:23:25;;;;;;;3.40;1.13;;;9.90;99.90;;;;;;5358222;26;20264;-68
2024/04/20 10:25:55;;;;;;;3.33;1.00;;;9.80;99.90;;;;;;5349526;26;20234;-66
2024/04/20 10:28:28;;;;;;;5.57;1.30;;;9.80;99.90;;;;;;5354729;26;20233;-67
2024/04/20 10:30:59;;;;;;;3.15;0.98;;;9.80;99.90;;;;;;5351823;26;20233;-68
2024/04/20 10:33:26;;;;;;;7.15;1.25;;;9.80;99.90;;;;;;5349553;26;20329;-66
2024/04/20 10:36:01;;;;;;;4.68;1.20;;;9.90;99.90;;;;;;5348030;26;20682;-67
2024/04/20 10:38:33;;;;;;;5.50;1.38;;;10.10;99.90;;;;;;5350897;26;20298;-67
2024/04/20 10:41:16;;;;;;;4.18;1.30;;;10.20;99.90;;;;;;5353156;26;20264;-67
2024/04/20 10:43:44;;;;;;;3.40;1.17;;;10.40;99.90;;;;;;5354160;26;20237;-66
2024/04/20 10:46:10;;;;;;;7.65;1.23;;;10.50;99.90;;;;;;5347146;26;20251;-66
2024/04/20 10:48:42;;;;;;;5.00;1.15;;;10.70;99.90;;;;;;5354413;26;20238;-66
2024/04/20 10:51:16;;;;;;;5.60;1.20;;;10.90;99.90;;;;;;5348761;26;20230;-68
2024/04/20 10:53:42;;;;;;;8.02;1.60;;;10.90;99.90;;;;;;5348771;26;20352;-67
2024/04/20 10:56:08;;;;;;;4.97;1.15;;;10.80;99.90;;;;;;5346516;26;20234;-67
2024/04/20 10:58:39;;;;;;;4.03;1.02;;;10.80;99.90;;;;;;5352458;26;20718;-66
2024/04/20 11:01:05;;;;;;;4.30;1.23;;;10.80;99.90;;;;;;5353239;26;20245;-68
2024/04/20 11:03:31;;;;;;;6.90;1.42;;;11.00;99.90;;;;;;5357733;26;20273;-66
2024/04/20 11:05:59;;;;;;;3.70;1.30;;;11.20;99.90;;;;;;5352260;26;20265;-68
2024/04/20 11:08:25;;;;;;;6.40;1.40;;;11.30;99.90;;;;;;5412250;26;20350;-67
2024/04/20 11:11:00;;;;;;;7.45;1.92;;;11.30;99.90;;;;;;5357548;26;20229;-68
2024/04/20 11:13:26;;;;;;;6.05;1.50;;;11.20;99.90;;;;;;5354122;26;20299;-67
2024/04/20 11:15:52;;;;;;;4.78;1.48;;;11.00;99.90;;;;;;5351036;26;20245;-68
2024/04/20 11:18:17;;;;;;;5.88;1.65;;;10.90;99.90;;;;;;5351508;26;20291;-66
2024/04/20 11:20:43;;;;;;;5.18;1.38;;;10.90;99.90;;;;;;5354950;26;20248;-66
2024/04/20 11:23:10;;;;;;;6.57;1.05;;;11.00;99.90;;;;;;5354699;26;20273;-67
2024/04/20 11:25:35;;;;;;;4.93;1.23;;;11.20;99.90;;;;;;5353623;26;20323;-67
2024/04/20 11:28:02;;;;;;;7.50;1.52;;;11.40;99.90;;;;;;5349175;26;20239;-68
2024/04/20 11:30:37;;;;;;;7.00;1.33;;;11.40;99.90;;;;;;5351230;26;20234;-68
2024/04/20 11:33:03;;;;;;;6.68;1.42;;;11.40;99.90;;;;;;5357167;26;20225;-69
2024/04/20 11:35:29;;;;;;;4.85;1.10;;;11.40;99.90;;;;;;5403880;26;20572;-66
2024/04/20 11:38:03;;;;;;;7.10;1.58;;;11.40;99.90;;;;;;5352654;26;20290;-67
2024/04/20 11:40:28;;;;;;;3.42;1.00;;;11.30;99.90;;;;;;5353210;26;20239;-66
2024/04/20 11:43:01;;;;;;;6.15;1.33;;;11.30;99.90;;;;;;5409668;26;20281;-66
2024/04/20 11:45:27;;;;;;;4.65;1.73;;;11.40;99.90;;;;;;5351214;26;20231;-68
2024/04/20 11:47:53;;;;;;;4.72;1.38;;;11.40;99.90;;;;;;5348035;26;20230;-67
2024/04/20 11:50:20;;;;;;;7.65;1.55;;;11.40;99.90;;;;;;5352600;26;20467;-68
2024/04/20 11:55:43;;;;;;;6.72;1.42;;;11.40;99.90;;;;;;5356393;26;20273;-66
2024/04/20 11:58:10;;;;;;;6.65;1.25;;;11.50;99.90;;;;;;5352411;26;20248;-67
2024/04/20 12:00:37;;;;;;;4.97;1.40;;;11.60;99.90;;;;;;5355886;26;20304;-68
2024/04/20 12:03:04;;;;;;;5.45;1.23;;;11.70;99.90;;;;;;5352962;26;20242;-68
2024/04/20 12:05:30;;;;;;;3.78;1.20;;;11.80;99.90;;;;;;5353452;26;20291;-69
2024/04/20 12:07:56;;;;;;;7.35;1.67;;;11.90;99.90;;;;;;5353280;26;20580;-68
2024/04/20 12:10:22;;;;;;;5.03;1.10;;;11.90;99.90;;;;;;5408244;26;20727;-67
2024/04/20 12:12:47;;;;;;;5.45;1.40;;;12.00;99.90;;;;;;5355400;26;20301;-67
2024/04/20 12:15:13;;;;;;;6.75;1.50;;;12.20;99.90;;;;;;5352419;26;20277;-69
2024/04/20 12:17:39;;;;;;;7.00;1.80;;;12.40;99.90;;;;;;5350548;26;20588;-68
2024/04/20 12:20:07;;;;;;;5.82;1.30;;;12.50;99.90;;;;;;5367211;26;20349;-68
2024/04/20 12:22:33;;;;;;;7.35;1.20;;;12.60;99.90;;;;;;5349499;26;20284;-66
2024/04/20 12:24:58;;;;;;;7.97;1.40;;;12.50;99.90;;;;;;5410174;26;20805;-68
2024/04/20 12:27:24;;;;;;;4.53;1.52;;;12.50;99.90;;;;;;5348159;26;20590;-69
2024/04/20 12:29:50;;;;;;;7.10;1.40;;;12.50;99.90;;;;;;5357734;26;20230;-68
2024/04/20 12:32:16;;;;;;;8.55;1.65;;;12.50;99.90;;;;;;5354041;26;20245;-69
2024/04/20 12:34:43;;;;;;;8.07;1.70;;;12.60;99.90;;;;;;5348515;26;20245;-66
2024/04/20 12:37:09;;;;;;;6.78;1.52;;;12.50;99.90;;;;;;5356395;26;20242;-67
2024/04/20 12:39:35;;;;;;;5.75;1.58;;;12.40;99.90;;;;;;5349901;26;21095;-68
2024/04/20 12:42:02;;;;;;;7.90;2.00;;;12.20;99.90;;;;;;5357040;26;20241;-67
2024/04/20 12:44:28;;;;;;;5.25;1.45;;;12.20;99.90;;;;;;5348061;26;21600;-71
2024/04/20 12:46:54;;;;;;;9.80;1.75;;;12.20;99.90;;;;;;5356312;26;20246;-68
2024/04/20 12:49:20;;;;;;;7.18;1.42;;;12.30;99.90;;;;;;5353022;26;20332;-66
2024/04/20 12:51:46;;;;;;;15.30;2.42;;;12.40;99.90;;;;;;5346706;26;21183;-65
2024/04/20 12:54:11;;;;;;;5.75;1.63;;;12.50;99.90;;;;;;5357325;26;20275;-67